Time;durP1;ratioP1;P1;durP2;ratioP2;P2;SDS_P1;SDS_P2;PMS_P1;PMS_P2;Temp;Humidity;BMP_temperature;BMP_pressure;BME280_temperature;BME280_humidity;BME280_pressure;Samples;Min_cycle;Max_cycle;Signal;HPM_P1;HPM_P2
2024/01/17 00:02:03;;;;;;;358.70;342.70;;;-4.20;99.90;;;;;;5059927;28;20216;-67
2024/01/17 00:04:29;;;;;;;351.00;335.20;;;-4.40;99.90;;;;;;5069819;28;20206;-67
2024/01/17 00:06:57;;;;;;;346.80;331.65;;;-4.40;99.90;;;;;;5072559;28;20204;-66
2024/01/17 00:09:23;;;;;;;367.77;351.65;;;-4.60;99.90;;;;;;5056940;28;20228;-66
2024/01/17 00:11:51;;;;;;;381.23;364.02;;;-4.80;99.90;;;;;;5056097;28;20207;-66
2024/01/17 00:14:17;;;;;;;397.73;378.67;;;-4.50;99.90;;;;;;5065366;28;20668;-67
2024/01/17 00:16:44;;;;;;;387.17;368.38;;;-4.50;99.90;;;;;;5060916;28;20210;-66
2024/01/17 00:19:13;;;;;;;360.60;344.10;;;-4.50;99.90;;;;;;5058546;28;20577;-67
2024/01/17 00:21:39;;;;;;;374.02;357.13;;;-4.80;99.90;;;;;;5071866;28;20209;-66
2024/01/17 00:24:06;;;;;;;378.30;360.52;;;-4.50;99.90;;;;;;5059037;28;20666;-67
2024/01/17 00:26:33;;;;;;;382.42;364.02;;;-4.50;99.90;;;;;;5052863;28;20197;-67
2024/01/17 00:29:00;;;;;;;367.50;351.20;;;-4.30;99.90;;;;;;5071885;28;20216;-65
2024/01/17 00:31:27;;;;;;;368.52;352.17;;;-4.40;99.90;;;;;;5055872;28;20200;-65
2024/01/17 00:33:53;;;;;;;374.38;357.33;;;-4.30;99.90;;;;;;5060797;28;20220;-67
2024/01/17 00:36:22;;;;;;;363.52;346.75;;;-4.40;99.90;;;;;;5067776;28;20204;-66
2024/01/17 00:38:48;;;;;;;364.88;348.63;;;-4.40;99.90;;;;;;5072208;28;20584;-67
2024/01/17 00:41:15;;;;;;;345.95;330.42;;;-4.30;99.90;;;;;;5072369;28;20196;-66
2024/01/17 00:43:42;;;;;;;344.52;329.02;;;-4.20;99.90;;;;;;5055724;28;20221;-67
2024/01/17 00:46:09;;;;;;;355.60;339.17;;;-4.80;99.90;;;;;;5066432;28;20200;-66
2024/01/17 00:48:35;;;;;;;349.38;333.85;;;-4.40;99.90;;;;;;5051752;28;20200;-66
2024/01/17 00:51:02;;;;;;;356.17;340.23;;;-4.40;99.90;;;;;;5060319;28;20215;-66
2024/01/17 00:53:31;;;;;;;366.08;348.08;;;-4.50;99.90;;;;;;5060762;28;20235;-67
2024/01/17 00:55:58;;;;;;;370.08;352.60;;;-4.40;99.90;;;;;;5066687;28;20291;-67
2024/01/17 00:58:25;;;;;;;364.45;348.45;;;-4.40;99.90;;;;;;5052063;28;20197;-67
2024/01/17 01:00:52;;;;;;;364.30;347.83;;;-4.30;99.90;;;;;;5044019;28;20296;-67
2024/01/17 01:03:19;;;;;;;364.17;348.38;;;-4.30;99.90;;;;;;5067245;28;20216;-67
2024/01/17 01:05:46;;;;;;;369.48;353.23;;;-4.20;99.90;;;;;;5055579;28;20204;-66
2024/01/17 01:08:13;;;;;;;392.92;374.92;;;-4.00;99.90;;;;;;5070738;28;20291;-67
2024/01/17 01:10:41;;;;;;;362.58;346.45;;;-4.10;99.90;;;;;;5055084;28;20217;-66
2024/01/17 01:13:08;;;;;;;376.02;359.25;;;-4.10;99.90;;;;;;5058244;28;20227;-66
2024/01/17 01:15:35;;;;;;;363.48;347.20;;;-4.00;99.90;;;;;;5069576;28;20200;-66
2024/01/17 01:18:02;;;;;;;359.38;343.17;;;-4.10;99.90;;;;;;5071442;28;20204;-67
2024/01/17 01:20:29;;;;;;;346.73;331.73;;;-4.00;99.90;;;;;;5062714;28;20200;-66
2024/01/17 01:22:56;;;;;;;356.52;340.67;;;-4.00;99.90;;;;;;5064112;28;20301;-67
2024/01/17 01:25:22;;;;;;;347.83;332.38;;;-4.10;99.90;;;;;;5055846;28;20196;-66
2024/01/17 01:27:51;;;;;;;348.63;333.33;;;-4.10;99.90;;;;;;5068067;28;20210;-67
2024/01/17 01:30:17;;;;;;;363.08;347.27;;;-4.10;99.90;;;;;;5051372;28;20217;-67
2024/01/17 01:32:44;;;;;;;349.02;333.48;;;-4.50;99.90;;;;;;5051862;28;20505;-67
2024/01/17 01:35:11;;;;;;;335.23;320.67;;;-4.10;99.90;;;;;;5054670;28;20283;-66
2024/01/17 01:37:38;;;;;;;332.35;317.48;;;-4.10;99.90;;;;;;5069680;28;20200;-67
2024/01/17 01:40:07;;;;;;;323.70;309.38;;;-4.10;99.90;;;;;;5069584;28;20212;-66
2024/01/17 01:42:34;;;;;;;319.45;305.35;;;-4.10;99.90;;;;;;5064698;28;20768;-66
2024/01/17 01:45:02;;;;;;;316.33;303.30;;;-4.40;99.90;;;;;;5070910;28;20205;-67
2024/01/17 01:47:29;;;;;;;316.25;302.70;;;-4.10;99.90;;;;;;5063973;28;20500;-67
2024/01/17 01:49:56;;;;;;;324.27;309.60;;;-4.10;99.90;;;;;;5062990;28;20218;-66
2024/01/17 01:52:23;;;;;;;331.33;316.95;;;-3.90;99.90;;;;;;5055335;28;20225;-67
2024/01/17 01:54:50;;;;;;;321.95;308.50;;;-4.00;99.90;;;;;;5074986;28;20587;-66
2024/01/17 01:57:17;;;;;;;362.25;346.55;;;-4.40;99.90;;;;;;5074855;28;20655;-66
2024/01/17 01:59:45;;;;;;;361.33;345.63;;;-4.00;99.90;;;;;;5064617;28;20200;-66
2024/01/17 02:02:14;;;;;;;358.05;341.98;;;-4.30;99.90;;;;;;5069744;28;20597;-66
2024/01/17 02:04:42;;;;;;;368.73;351.85;;;-4.00;99.90;;;;;;5058609;28;20200;-66
2024/01/17 02:07:12;;;;;;;373.95;357.38;;;-3.90;99.90;;;;;;5068957;28;20209;-67
2024/01/17 02:09:39;;;;;;;354.88;339.42;;;-3.80;99.90;;;;;;5054831;28;20590;-66
2024/01/17 02:12:09;;;;;;;338.60;324.05;;;-3.90;99.90;;;;;;5054731;28;20221;-67
2024/01/17 02:14:40;;;;;;;343.20;327.02;;;-3.90;99.90;;;;;;5063463;28;20204;-66
2024/01/17 02:17:07;;;;;;;322.83;308.67;;;-4.00;99.90;;;;;;5062954;28;20228;-66
2024/01/17 02:19:36;;;;;;;332.75;318.55;;;-3.80;99.90;;;;;;5064122;28;20588;-66
2024/01/17 02:22:03;;;;;;;334.30;320.10;;;-4.00;99.90;;;;;;5074893;28;20742;-66
2024/01/17 02:24:31;;;;;;;349.00;333.75;;;-3.90;99.90;;;;;;5074566;28;20202;-67
2024/01/17 02:26:59;;;;;;;341.00;326.55;;;-4.00;99.90;;;;;;5061946;28;20679;-67
2024/01/17 02:29:26;;;;;;;357.83;341.98;;;-3.90;99.90;;;;;;5071331;28;20216;-66
2024/01/17 02:31:54;;;;;;;370.40;353.63;;;-4.40;99.90;;;;;;5058640;28;20574;-67
2024/01/17 02:34:20;;;;;;;377.63;359.88;;;-4.00;99.90;;;;;;5074742;28;20200;-66
2024/01/17 02:36:47;;;;;;;391.95;373.50;;;-3.80;99.90;;;;;;5071648;28;20209;-66
2024/01/17 02:39:15;;;;;;;401.48;381.58;;;-4.40;99.90;;;;;;5053920;28;20219;-66
2024/01/17 02:41:43;;;;;;;403.38;384.27;;;-3.90;99.90;;;;;;5061390;28;20201;-67
2024/01/17 02:44:10;;;;;;;408.95;388.85;;;-4.10;99.90;;;;;;5054263;28;20201;-67
2024/01/17 02:46:37;;;;;;;397.73;378.70;;;-3.80;99.90;;;;;;5064151;28;20196;-67
2024/01/17 02:49:04;;;;;;;399.10;380.30;;;-3.90;99.90;;;;;;5074112;28;20665;-67
2024/01/17 02:51:31;;;;;;;383.25;365.48;;;-3.90;99.90;;;;;;5073195;28;20578;-66
2024/01/17 02:53:57;;;;;;;391.88;373.30;;;-4.40;99.90;;;;;;5074061;28;20234;-66
2024/01/17 02:56:24;;;;;;;407.48;388.00;;;-4.00;99.90;;;;;;5074397;28;20213;-66
2024/01/17 02:58:52;;;;;;;412.45;392.45;;;-4.00;99.90;;;;;;5062587;28;20584;-66
2024/01/17 03:01:19;;;;;;;415.50;394.08;;;-4.00;99.90;;;;;;5069580;28;20198;-67
2024/01/17 03:03:46;;;;;;;417.38;395.35;;;-3.90;99.90;;;;;;5074034;28;20246;-66
2024/01/17 03:06:13;;;;;;;425.52;404.55;;;-3.90;99.90;;;;;;5073896;28;20204;-67
2024/01/17 03:08:39;;;;;;;421.48;400.08;;;-4.30;99.90;;;;;;5055563;28;20213;-66
2024/01/17 03:11:06;;;;;;;418.55;396.65;;;-3.90;99.90;;;;;;5059029;28;20226;-66
2024/01/17 03:13:33;;;;;;;434.40;411.45;;;-4.00;99.90;;;;;;5073204;28;20224;-67
2024/01/17 03:16:03;;;;;;;424.70;402.45;;;-4.00;99.90;;;;;;5073770;28;20200;-66
2024/01/17 03:18:29;;;;;;;415.05;393.30;;;-4.00;99.90;;;;;;5056596;28;20215;-67
2024/01/17 03:20:56;;;;;;;428.58;406.52;;;-4.00;99.90;;;;;;5057693;28;20203;-66
2024/01/17 03:23:23;;;;;;;426.73;405.10;;;-4.10;99.90;;;;;;5066036;28;20221;-66
2024/01/17 03:25:50;;;;;;;419.25;398.35;;;-4.00;99.90;;;;;;5064947;28;20672;-67
2024/01/17 03:28:16;;;;;;;446.38;422.02;;;-4.10;99.90;;;;;;5073274;28;20674;-67
2024/01/17 03:30:44;;;;;;;443.17;419.08;;;-4.00;99.90;;;;;;5073285;28;20603;-67
2024/01/17 03:33:12;;;;;;;431.70;408.73;;;-4.00;99.90;;;;;;5073108;28;20223;-67
2024/01/17 03:35:39;;;;;;;435.55;410.10;;;-4.00;99.90;;;;;;5073563;28;20241;-66
2024/01/17 03:38:05;;;;;;;437.95;414.23;;;-4.00;99.90;;;;;;5073017;28;20211;-67
2024/01/17 03:40:32;;;;;;;443.40;419.15;;;-4.00;99.90;;;;;;5073074;28;20197;-67
2024/01/17 03:42:59;;;;;;;427.52;404.90;;;-4.00;99.90;;;;;;5067574;28;20228;-66
2024/01/17 03:45:26;;;;;;;421.77;399.65;;;-3.80;99.90;;;;;;5061276;28;20212;-67
2024/01/17 03:47:53;;;;;;;431.90;407.85;;;-4.20;99.90;;;;;;5056555;28;20211;-67
2024/01/17 03:50:21;;;;;;;426.98;403.77;;;-4.00;99.90;;;;;;5057330;28;20225;-67
2024/01/17 03:52:49;;;;;;;416.85;394.58;;;-4.00;99.90;;;;;;5069385;28;20243;-67
2024/01/17 03:55:15;;;;;;;417.33;395.17;;;-3.70;99.90;;;;;;5059714;28;20199;-66
2024/01/17 03:57:42;;;;;;;417.15;395.25;;;-3.90;99.90;;;;;;5056380;28;20597;-66
2024/01/17 04:00:10;;;;;;;423.60;401.35;;;-4.00;99.90;;;;;;5072790;28;20197;-67
2024/01/17 04:02:37;;;;;;;415.75;393.85;;;-4.00;99.90;;;;;;5056082;28;20233;-66
2024/01/17 04:05:04;;;;;;;415.77;394.02;;;-4.00;99.90;;;;;;5073262;28;20196;-67
2024/01/17 04:07:32;;;;;;;405.67;383.67;;;-4.00;99.90;;;;;;5072582;28;20199;-67
2024/01/17 04:09:59;;;;;;;404.42;383.30;;;-3.80;99.90;;;;;;5072760;28;20227;-66
2024/01/17 04:12:26;;;;;;;408.38;386.70;;;-3.90;99.90;;;;;;5056500;28;20228;-66
2024/01/17 04:14:52;;;;;;;408.83;387.63;;;-3.90;99.90;;;;;;5044316;28;20209;-66
2024/01/17 04:17:19;;;;;;;419.60;397.58;;;-3.90;99.90;;;;;;5068071;28;20588;-66
2024/01/17 04:19:46;;;;;;;429.08;406.38;;;-3.70;99.90;;;;;;5060473;28;20205;-66
2024/01/17 04:22:13;;;;;;;428.75;406.05;;;-4.20;99.90;;;;;;5052535;28;20704;-66
2024/01/17 04:24:41;;;;;;;422.42;398.42;;;-3.70;99.90;;;;;;5070971;28;20578;-67
2024/01/17 04:27:08;;;;;;;421.58;399.25;;;-3.70;99.90;;;;;;5058535;28;20207;-67
2024/01/17 04:29:36;;;;;;;402.10;381.88;;;-3.60;99.90;;;;;;5060137;28;20387;-66
2024/01/17 04:32:03;;;;;;;380.95;361.58;;;-3.60;99.90;;;;;;5065970;28;20221;-67
2024/01/17 04:34:29;;;;;;;378.65;360.20;;;-3.50;99.90;;;;;;5072761;28;20205;-65
2024/01/17 04:36:56;;;;;;;371.30;352.77;;;-3.50;99.90;;;;;;5072451;28;20212;-66
2024/01/17 04:39:24;;;;;;;346.15;329.23;;;-3.60;99.90;;;;;;5064638;28;20213;-66
2024/01/17 04:41:52;;;;;;;361.08;344.08;;;-3.50;99.90;;;;;;5063774;28;20198;-66
2024/01/17 04:44:19;;;;;;;347.52;331.27;;;-3.60;99.90;;;;;;5071087;28;20208;-67
2024/01/17 04:46:47;;;;;;;333.23;317.73;;;-3.50;99.90;;;;;;5055488;28;20688;-66
2024/01/17 04:49:13;;;;;;;337.88;322.33;;;-3.80;99.90;;;;;;5065712;28;20201;-67
2024/01/17 04:51:41;;;;;;;330.40;314.30;;;-3.90;99.90;;;;;;5051775;28;20738;-66
2024/01/17 04:54:08;;;;;;;333.67;318.00;;;-3.60;99.90;;;;;;5065768;28;20242;-67
2024/01/17 04:56:35;;;;;;;326.10;310.70;;;-3.60;99.90;;;;;;5071796;28;20331;-66
2024/01/17 04:59:03;;;;;;;330.40;314.35;;;-3.60;99.90;;;;;;5058931;28;20208;-66
2024/01/17 05:01:30;;;;;;;309.65;295.55;;;-3.60;99.90;;;;;;5051681;28;20205;-67
2024/01/17 05:03:57;;;;;;;317.55;302.70;;;-3.60;99.90;;;;;;5056204;28;20216;-66
2024/01/17 05:06:24;;;;;;;299.35;285.52;;;-3.80;99.90;;;;;;5064054;28;20650;-66
2024/01/17 05:08:51;;;;;;;279.77;266.95;;;-3.30;99.90;;;;;;5063148;28;20199;-67
2024/01/17 05:11:21;;;;;;;278.15;265.45;;;-3.50;99.90;;;;;;5071762;28;20226;-67
2024/01/17 05:13:48;;;;;;;254.70;242.32;;;-3.20;99.90;;;;;;5055119;28;20277;-66
2024/01/17 05:16:17;;;;;;;258.38;246.65;;;-3.60;99.90;;;;;;5065644;28;20202;-67
2024/01/17 05:18:44;;;;;;;252.13;241.23;;;-3.30;99.90;;;;;;5059821;28;20659;-66
2024/01/17 05:21:11;;;;;;;260.30;249.40;;;-3.30;99.90;;;;;;5057892;28;20196;-66
2024/01/17 05:23:38;;;;;;;243.65;233.25;;;-3.70;99.90;;;;;;5071870;28;20583;-67
2024/01/17 05:26:06;;;;;;;245.55;234.68;;;-3.40;99.90;;;;;;5072310;28;20204;-66
2024/01/17 05:28:33;;;;;;;246.32;234.65;;;-3.40;99.90;;;;;;5070795;28;20202;-66
2024/01/17 05:30:59;;;;;;;246.25;235.82;;;-3.40;99.90;;;;;;5056189;28;20315;-66
2024/01/17 05:33:28;;;;;;;251.70;239.75;;;-3.40;99.90;;;;;;5071910;28;20615;-66
2024/01/17 05:35:54;;;;;;;248.43;237.60;;;-3.40;99.90;;;;;;5054818;28;20210;-66
2024/01/17 05:38:21;;;;;;;244.10;233.43;;;-3.80;99.90;;;;;;5071865;28;20656;-67
2024/01/17 05:40:48;;;;;;;240.65;230.05;;;-3.40;99.90;;;;;;5072020;28;20611;-67
2024/01/17 05:43:15;;;;;;;235.15;225.15;;;-3.40;99.90;;;;;;5072202;28;20254;-66
2024/01/17 05:45:42;;;;;;;239.75;228.93;;;-3.40;99.90;;;;;;5071908;28;20200;-67
2024/01/17 05:48:09;;;;;;;240.27;229.10;;;-3.20;99.90;;;;;;5065746;28;20237;-67
2024/01/17 05:50:37;;;;;;;234.95;224.90;;;-3.30;99.90;;;;;;5061541;28;20684;-66
2024/01/17 05:53:04;;;;;;;227.38;217.65;;;-3.30;99.90;;;;;;5071932;28;20242;-67
2024/01/17 05:55:32;;;;;;;213.35;203.82;;;-3.70;99.90;;;;;;5070601;28;20204;-67
2024/01/17 05:57:59;;;;;;;208.02;198.80;;;-3.30;99.90;;;;;;5071572;28;20204;-67
2024/01/17 06:00:26;;;;;;;191.68;183.07;;;-3.30;99.90;;;;;;5071895;28;20226;-66
2024/01/17 06:02:52;;;;;;;188.23;180.02;;;-3.20;99.90;;;;;;5071529;28;20217;-67
2024/01/17 06:05:19;;;;;;;192.80;184.45;;;-3.20;99.90;;;;;;5071618;28;20200;-66
2024/01/17 06:07:48;;;;;;;183.30;174.77;;;-3.10;99.90;;;;;;5071504;28;20196;-66
2024/01/17 06:10:15;;;;;;;177.93;169.18;;;-3.20;99.90;;;;;;5071418;28;20252;-66
2024/01/17 06:12:42;;;;;;;166.15;158.32;;;-3.20;99.90;;;;;;5069749;28;20247;-67
2024/01/17 06:15:09;;;;;;;162.15;153.57;;;-3.20;99.90;;;;;;5051656;28;20598;-66
2024/01/17 06:17:36;;;;;;;158.00;150.73;;;-3.10;99.90;;;;;;5059435;28;20352;-66
2024/01/17 06:20:04;;;;;;;141.85;135.00;;;-3.40;99.90;;;;;;5070988;28;20208;-67
2024/01/17 06:22:30;;;;;;;126.82;120.35;;;-3.20;99.90;;;;;;5070563;28;20218;-67
2024/01/17 06:24:59;;;;;;;119.75;112.35;;;-3.50;99.90;;;;;;5067448;28;20208;-66
2024/01/17 06:27:25;;;;;;;98.95;92.63;;;-3.10;99.90;;;;;;5054552;28;20198;-66
2024/01/17 06:29:52;;;;;;;86.18;81.50;;;-3.00;99.90;;;;;;5046415;28;20198;-67
2024/01/17 06:32:19;;;;;;;87.10;81.30;;;-3.00;99.90;;;;;;5069975;28;20697;-65
2024/01/17 06:34:46;;;;;;;82.43;77.40;;;-3.00;99.90;;;;;;5074603;28;20204;-66
2024/01/17 06:37:13;;;;;;;76.95;72.10;;;-3.40;99.90;;;;;;5058657;28;20258;-66
2024/01/17 06:39:41;;;;;;;76.63;72.05;;;-3.00;99.90;;;;;;5062734;28;20308;-66
2024/01/17 06:42:09;;;;;;;68.47;64.45;;;-2.90;99.90;;;;;;5054375;28;20219;-67
2024/01/17 06:44:37;;;;;;;68.75;63.97;;;-2.90;99.90;;;;;;5062684;28;20259;-67
2024/01/17 06:47:04;;;;;;;67.95;63.50;;;-2.90;99.90;;;;;;5067288;28;20200;-67
2024/01/17 06:49:31;;;;;;;70.05;65.30;;;-2.90;99.90;;;;;;5065477;28;20206;-66
2024/01/17 06:51:58;;;;;;;70.40;66.05;;;-2.90;99.90;;;;;;5065484;28;20718;-67
2024/01/17 06:54:25;;;;;;;69.53;64.78;;;-2.90;99.90;;;;;;5057975;28;20215;-66
2024/01/17 06:56:52;;;;;;;73.85;68.85;;;-2.90;99.90;;;;;;5074091;28;20212;-66
2024/01/17 06:59:21;;;;;;;73.97;69.57;;;-2.90;99.90;;;;;;5058383;28;20588;-67
2024/01/17 07:01:48;;;;;;;67.93;63.88;;;-2.90;99.90;;;;;;5073286;28;20706;-66
2024/01/17 07:04:15;;;;;;;58.88;55.17;;;-2.90;99.90;;;;;;5059232;28;20199;-66
2024/01/17 07:06:42;;;;;;;51.83;48.30;;;-2.80;99.90;;;;;;5062315;28;20205;-67
2024/01/17 07:09:10;;;;;;;51.55;47.75;;;-3.10;99.90;;;;;;5062170;28;20212;-67
2024/01/17 07:11:37;;;;;;;57.03;52.95;;;-2.80;99.90;;;;;;5063152;28;20266;-66
2024/01/17 07:14:04;;;;;;;59.13;55.17;;;-2.80;99.90;;;;;;5073852;28;20196;-67
2024/01/17 07:16:32;;;;;;;56.20;52.55;;;-3.00;99.90;;;;;;5073940;28;20206;-67
2024/01/17 07:18:59;;;;;;;53.97;50.00;;;-2.80;99.90;;;;;;5069156;28;20223;-67
2024/01/17 07:21:26;;;;;;;59.30;55.35;;;-2.80;99.90;;;;;;5053648;28;20197;-67
2024/01/17 07:23:53;;;;;;;57.67;53.60;;;-2.70;99.90;;;;;;5059484;28;20217;-66
2024/01/17 07:26:20;;;;;;;48.33;45.13;;;-2.50;99.90;;;;;;5071388;28;20200;-66
2024/01/17 07:28:47;;;;;;;45.85;42.17;;;-2.70;99.90;;;;;;5054970;28;20202;-67
2024/01/17 07:31:14;;;;;;;41.75;38.53;;;-2.90;99.90;;;;;;5073201;28;20227;-67
2024/01/17 07:33:42;;;;;;;40.28;36.92;;;-2.60;99.90;;;;;;5073514;28;20608;-67
2024/01/17 07:36:09;;;;;;;35.63;32.05;;;-2.50;99.90;;;;;;5072772;28;20201;-66
2024/01/17 07:38:36;;;;;;;33.03;29.70;;;-2.50;99.90;;;;;;5071555;28;20208;-67
2024/01/17 07:41:04;;;;;;;35.67;32.63;;;-2.50;99.90;;;;;;5052007;28;20200;-66
2024/01/17 07:43:31;;;;;;;30.90;28.25;;;-2.40;99.90;;;;;;5061969;28;20230;-66
2024/01/17 07:45:58;;;;;;;31.02;24.15;;;-2.40;99.90;;;;;;5053598;28;20206;-67
2024/01/17 07:48:25;;;;;;;24.35;22.13;;;-2.30;99.90;;;;;;5061262;28;20568;-66
2024/01/17 07:50:53;;;;;;;21.33;18.90;;;-2.30;99.90;;;;;;5056805;28;20207;-66
2024/01/17 07:53:20;;;;;;;28.48;20.15;;;-2.20;99.90;;;;;;5057525;28;20225;-66
2024/01/17 07:55:49;;;;;;;25.50;18.05;;;-2.20;99.90;;;;;;5072215;28;20209;-66
2024/01/17 07:58:17;;;;;;;26.73;16.30;;;-2.20;99.90;;;;;;5066335;28;20229;-67
2024/01/17 08:00:44;;;;;;;25.27;16.88;;;-2.10;99.90;;;;;;5053074;28;20232;-67
2024/01/17 08:03:11;;;;;;;22.77;15.75;;;-2.10;99.90;;;;;;5067237;28;20226;-67
2024/01/17 08:05:39;;;;;;;21.05;15.73;;;-2.00;99.90;;;;;;5072981;28;20228;-67
2024/01/17 08:08:07;;;;;;;25.30;16.58;;;-2.00;99.90;;;;;;5072657;28;20209;-66
2024/01/17 08:10:34;;;;;;;28.33;15.98;;;-1.90;99.90;;;;;;5055851;28;20199;-67
2024/01/17 08:13:01;;;;;;;25.45;16.77;;;-1.90;99.90;;;;;;5072943;28;20236;-67
2024/01/17 08:15:27;;;;;;;21.95;14.55;;;-1.80;99.90;;;;;;5064360;28;20208;-65
2024/01/17 08:17:54;;;;;;;28.05;14.27;;;-1.80;99.90;;;;;;5060769;28;20210;-67
2024/01/17 08:20:21;;;;;;;22.27;13.93;;;-1.70;99.90;;;;;;5059829;28;20663;-66
2024/01/17 08:22:50;;;;;;;24.63;14.10;;;-1.70;99.90;;;;;;5072495;28;20250;-66
2024/01/17 08:25:18;;;;;;;19.23;15.05;;;-1.70;99.90;;;;;;5072974;28;20533;-66
2024/01/17 08:27:45;;;;;;;25.80;13.70;;;-1.60;99.90;;;;;;5070012;28;20211;-66
2024/01/17 08:30:12;;;;;;;23.13;14.20;;;-1.50;99.90;;;;;;5052595;28;20450;-67
2024/01/17 08:32:39;;;;;;;22.57;13.47;;;-1.50;99.90;;;;;;5052524;28;20484;-68
2024/01/17 08:35:06;;;;;;;21.10;12.20;;;-1.50;99.90;;;;;;5066419;28;20552;-67
2024/01/17 08:37:35;;;;;;;23.83;12.90;;;-1.40;99.90;;;;;;5054469;28;20206;-70
2024/01/17 08:40:03;;;;;;;23.40;14.40;;;-1.40;99.90;;;;;;5057086;28;20476;-68
2024/01/17 08:42:31;;;;;;;20.88;12.00;;;-1.30;99.90;;;;;;5055114;28;20448;-68
2024/01/17 08:44:58;;;;;;;19.17;12.30;;;-1.30;99.90;;;;;;5059979;28;20216;-68
2024/01/17 08:47:25;;;;;;;19.70;12.73;;;-1.20;99.90;;;;;;5052168;28;20461;-68
2024/01/17 08:49:53;;;;;;;25.10;13.10;;;-1.20;99.90;;;;;;5067897;28;20461;-67
2024/01/17 08:52:20;;;;;;;18.75;12.48;;;-1.20;99.90;;;;;;5052475;28;20486;-68
2024/01/17 08:54:49;;;;;;;19.17;12.67;;;-1.10;99.90;;;;;;5051988;28;20295;-70
2024/01/17 08:57:16;;;;;;;17.13;12.40;;;-1.10;99.90;;;;;;5051937;28;20478;-69
2024/01/17 08:59:44;;;;;;;17.50;11.70;;;-1.10;99.90;;;;;;5052009;28;20465;-68
2024/01/17 09:02:11;;;;;;;17.80;10.97;;;-1.00;99.90;;;;;;5058024;28;20502;-68
2024/01/17 09:04:39;;;;;;;33.10;11.57;;;-1.00;99.90;;;;;;5070251;28;21009;-66
2024/01/17 09:07:06;;;;;;;20.90;11.70;;;-1.00;99.90;;;;;;5056672;28;20454;-66
2024/01/17 09:09:33;;;;;;;18.57;10.80;;;-1.00;99.90;;;;;;5070923;28;20450;-67
2024/01/17 09:12:00;;;;;;;24.47;13.07;;;-1.00;99.90;;;;;;5056531;28;20496;-66
2024/01/17 09:14:27;;;;;;;20.47;12.00;;;-1.00;99.90;;;;;;5063777;28;20848;-66
2024/01/17 09:16:55;;;;;;;20.00;13.20;;;-0.90;99.90;;;;;;5055188;28;20954;-67
2024/01/17 09:19:22;;;;;;;16.60;10.70;;;-0.80;99.90;;;;;;5070245;28;20834;-66
2024/01/17 09:21:50;;;;;;;18.60;12.63;;;-0.80;99.90;;;;;;5070258;28;20200;-67
2024/01/17 09:24:17;;;;;;;18.13;11.90;;;-0.70;99.90;;;;;;5056422;28;20729;-67
2024/01/17 09:26:44;;;;;;;19.13;12.00;;;-0.70;99.90;;;;;;5069933;28;20451;-67
2024/01/17 09:29:10;;;;;;;23.37;11.73;;;-0.70;99.90;;;;;;5055148;28;20447;-67
2024/01/17 09:31:37;;;;;;;21.43;13.70;;;-0.70;99.90;;;;;;5052106;28;20471;-66
2024/01/17 09:34:07;;;;;;;21.93;15.50;;;-0.70;99.90;;;;;;5058121;28;20504;-67
2024/01/17 09:36:34;;;;;;;26.80;16.87;;;-0.60;99.90;;;;;;5068521;28;20476;-67
2024/01/17 09:39:01;;;;;;;25.90;18.95;;;-0.60;99.90;;;;;;5066537;28;20458;-67
2024/01/17 09:41:27;;;;;;;32.03;19.05;;;-0.40;99.90;;;;;;5059367;28;20732;-66
2024/01/17 09:43:56;;;;;;;21.63;13.33;;;-0.40;99.90;;;;;;5059334;28;20225;-65
2024/01/17 09:46:23;;;;;;;22.17;14.53;;;-0.30;99.90;;;;;;5051098;28;20452;-67
2024/01/17 09:48:51;;;;;;;28.63;13.47;;;-0.30;99.90;;;;;;5052705;28;20953;-67
2024/01/17 09:51:24;;;;;;;19.63;12.43;;;-0.20;99.90;;;;;;5069714;28;20478;-67
2024/01/17 09:53:53;;;;;;;17.57;10.80;;;-0.20;99.90;;;;;;5067952;28;20891;-67
2024/01/17 09:56:21;;;;;;;16.13;10.70;;;-0.20;99.90;;;;;;5051084;28;20525;-67
2024/01/17 09:58:51;;;;;;;18.07;10.40;;;-0.10;99.90;;;;;;5058834;28;21023;-67
2024/01/17 10:01:20;;;;;;;18.80;10.70;;;0.00;99.90;;;;;;5060988;28;20486;-66
2024/01/17 10:03:48;;;;;;;18.83;11.57;;;0.00;99.90;;;;;;5063945;28;20661;-66
2024/01/17 10:06:19;;;;;;;19.47;11.30;;;0.10;99.90;;;;;;5069510;28;20490;-67
2024/01/17 10:08:47;;;;;;;15.20;9.47;;;0.10;99.90;;;;;;5058021;28;20456;-68
2024/01/17 10:11:14;;;;;;;28.40;12.93;;;0.10;99.90;;;;;;5073957;28;20465;-67
2024/01/17 10:13:41;;;;;;;19.00;11.07;;;0.10;99.90;;;;;;5056192;28;20488;-67
2024/01/17 10:16:09;;;;;;;17.83;11.13;;;0.10;99.90;;;;;;5054519;28;20936;-67
2024/01/17 10:18:36;;;;;;;21.10;12.37;;;0.10;99.90;;;;;;5063526;28;21024;-67
2024/01/17 10:21:04;;;;;;;21.67;12.57;;;0.10;99.90;;;;;;5061270;28;20482;-67
2024/01/17 10:23:32;;;;;;;18.40;10.03;;;0.10;99.90;;;;;;5062478;28;20472;-71
2024/01/17 10:26:00;;;;;;;20.53;10.93;;;0.10;99.90;;;;;;5054194;28;20977;-67
2024/01/17 10:28:27;;;;;;;18.73;11.63;;;0.10;99.90;;;;;;5052869;28;20458;-67
2024/01/17 10:30:54;;;;;;;18.87;11.47;;;0.10;99.90;;;;;;5046087;28;20540;-68
2024/01/17 10:33:21;;;;;;;21.17;11.67;;;0.10;99.90;;;;;;5062611;28;20865;-67
2024/01/17 10:35:50;;;;;;;28.23;12.50;;;0.20;99.90;;;;;;5064702;28;20463;-67
2024/01/17 10:38:18;;;;;;;18.10;11.20;;;0.10;99.90;;;;;;5054245;28;20513;-67
2024/01/17 10:40:46;;;;;;;25.23;13.23;;;0.20;99.90;;;;;;5070680;28;20542;-67
2024/01/17 10:43:14;;;;;;;19.97;13.00;;;0.30;99.90;;;;;;5020434;28;20473;-66
2024/01/17 10:45:43;;;;;;;25.80;12.73;;;0.30;99.90;;;;;;5028281;28;20459;-66
2024/01/17 10:48:14;;;;;;;18.23;11.10;;;0.30;99.90;;;;;;5033690;28;20456;-67
2024/01/17 10:50:42;;;;;;;21.63;13.00;;;0.40;99.90;;;;;;5023784;28;20493;-68
2024/01/17 10:53:10;;;;;;;18.87;11.67;;;0.30;99.90;;;;;;5014430;28;20483;-67
2024/01/17 10:55:38;;;;;;;21.30;11.23;;;0.50;99.90;;;;;;5014826;28;20960;-67
2024/01/17 10:58:10;;;;;;;22.90;11.83;;;0.40;99.90;;;;;;5019302;28;20461;-67
2024/01/17 11:00:39;;;;;;;21.50;12.23;;;0.50;99.90;;;;;;5016516;28;20800;-67
2024/01/17 11:03:09;;;;;;;25.20;12.80;;;0.50;99.90;;;;;;5014397;28;20474;-67
2024/01/17 11:05:45;;;;;;;21.03;12.87;;;0.60;99.90;;;;;;5022228;28;20971;-67
2024/01/17 11:08:13;;;;;;;18.17;12.67;;;0.50;99.90;;;;;;5020089;28;20457;-67
2024/01/17 11:10:43;;;;;;;19.30;12.80;;;0.40;99.90;;;;;;5032257;28;20467;-67
2024/01/17 11:13:14;;;;;;;17.90;12.67;;;0.50;99.90;;;;;;5022009;28;20493;-67
2024/01/17 11:15:41;;;;;;;20.60;11.10;;;0.50;99.90;;;;;;5024175;28;20493;-66
2024/01/17 11:18:21;;;;;;;18.90;11.57;;;0.50;99.90;;;;;;5034024;28;20468;-68
2024/01/17 11:20:48;;;;;;;19.97;11.40;;;0.60;99.90;;;;;;5014661;28;21831;-68
2024/01/17 11:23:25;;;;;;;28.20;12.63;;;0.60;99.90;;;;;;5028595;28;20473;-68
2024/01/17 11:25:59;;;;;;;25.10;13.87;;;0.60;99.90;;;;;;5034012;28;20845;-67
2024/01/17 11:28:34;;;;;;;31.80;13.80;;;0.60;99.90;;;;;;5016332;28;20963;-67
2024/01/17 11:31:18;;;;;;;20.80;12.53;;;0.60;99.90;;;;;;5007214;28;20463;-67
2024/01/17 11:33:45;;;;;;;27.87;13.33;;;0.50;99.90;;;;;;5014030;28;20486;-67
2024/01/17 11:36:41;;;;;;;25.23;16.00;;;0.50;99.90;;;;;;5014284;28;20461;-67
2024/01/17 11:39:09;;;;;;;23.10;15.00;;;0.40;99.90;;;;;;5007982;28;20832;-67
2024/01/17 11:41:38;;;;;;;20.77;13.40;;;0.40;99.90;;;;;;5013479;28;20679;-67
2024/01/17 11:44:08;;;;;;;27.33;16.50;;;0.30;99.90;;;;;;5022152;28;20456;-67
2024/01/17 11:46:35;;;;;;;33.53;17.73;;;0.20;99.90;;;;;;5031101;28;20461;-68
2024/01/17 11:49:02;;;;;;;29.83;19.03;;;0.10;99.90;;;;;;5032988;28;20477;-67
2024/01/17 11:51:29;;;;;;;28.40;21.67;;;0.00;99.90;;;;;;5033357;28;20452;-67
2024/01/17 11:53:57;;;;;;;45.33;24.57;;;0.00;99.90;;;;;;5025287;28;20894;-67
2024/01/17 11:56:27;;;;;;;34.97;27.73;;;0.00;99.90;;;;;;5033413;28;20456;-67
2024/01/17 11:58:58;;;;;;;33.50;30.13;;;0.00;99.90;;;;;;5029676;28;20456;-67
2024/01/17 12:01:41;;;;;;;33.03;29.83;;;0.00;99.90;;;;;;5013505;28;20878;-66
2024/01/17 12:04:13;;;;;;;39.10;35.90;;;-0.10;99.90;;;;;;5012718;28;20930;-66
2024/01/17 12:06:41;;;;;;;57.87;53.27;;;-0.20;99.90;;;;;;5023298;28;20456;-67
2024/01/17 12:09:15;;;;;;;64.77;60.37;;;-0.20;99.90;;;;;;5026892;28;20457;-66
2024/01/17 12:11:42;;;;;;;75.17;69.70;;;-0.20;99.90;;;;;;5032871;28;20511;-67
2024/01/17 12:14:09;;;;;;;71.70;67.17;;;-0.10;99.90;;;;;;5027220;28;20489;-66
2024/01/17 12:16:37;;;;;;;88.70;83.30;;;-0.10;99.90;;;;;;5019735;28;20460;-66
2024/01/17 12:19:04;;;;;;;98.73;92.73;;;0.00;99.90;;;;;;5020541;28;20469;-66
2024/01/17 12:21:31;;;;;;;105.97;100.17;;;0.10;99.90;;;;;;5020546;28;20990;-66